sensor_id;sensor_type;location;lat;lon;timestamp;P1;P2;P0
62054;PMS5003;48653;51.742;-1.256;2023-02-12T00:03:45;28;28;
62054;PMS5003;48653;51.742;-1.256;2023-02-12T00:06:10;34;28;
62054;PMS5003;48653;51.742;-1.256;2023-02-12T00:08:35;29;29;
62054;PMS5003;48653;51.742;-1.256;2023-02-12T00:13:25;33;31;
62054;PMS5003;48653;51.742;-1.256;2023-02-12T00:15:51;26;23;
62054;PMS5003;48653;51.742;-1.256;2023-02-12T00:18:16;29;23;
62054;PMS5003;48653;51.742;-1.256;2023-02-12T00:20:41;22;22;
62054;PMS5003;48653;51.742;-1.256;2023-02-12T00:23:09;26;23;
62054;PMS5003;48653;51.742;-1.256;2023-02-12T00:25:33;28;27;
62054;PMS5003;48653;51.742;-1.256;2023-02-12T00:27:58;24;20;
62054;PMS5003;48653;51.742;-1.256;2023-02-12T00:30:24;26;24;
62054;PMS5003;48653;51.742;-1.256;2023-02-12T00:32:49;35;32;
62054;PMS5003;48653;51.742;-1.256;2023-02-12T00:35:15;29;24;
62054;PMS5003;48653;51.742;-1.256;2023-02-12T00:37:41;20;18;
62054;PMS5003;48653;51.742;-1.256;2023-02-12T00:40:07;20;17;
62054;PMS5003;48653;51.742;-1.256;2023-02-12T00:42:31;20;15;
62054;PMS5003;48653;51.742;-1.256;2023-02-12T00:44:57;23;17;
62054;PMS5003;48653;51.742;-1.256;2023-02-12T00:47:22;18;18;
62054;PMS5003;48653;51.742;-1.256;2023-02-12T00:49:47;19;18;
62054;PMS5003;48653;51.742;-1.256;2023-02-12T00:52:13;23;20;
62054;PMS5003;48653;51.742;-1.256;2023-02-12T00:54:38;24;20;
62054;PMS5003;48653;51.742;-1.256;2023-02-12T00:57:03;22;19;
62054;PMS5003;48653;51.742;-1.256;2023-02-12T00:59:29;20;20;
62054;PMS5003;48653;51.742;-1.256;2023-02-12T01:01:54;19;18;
62054;PMS5003;48653;51.742;-1.256;2023-02-12T01:04:19;23;19;
62054;PMS5003;48653;51.742;-1.256;2023-02-12T01:06:44;18;18;
62054;PMS5003;48653;51.742;-1.256;2023-02-12T01:09:09;24;21;
62054;PMS5003;48653;51.742;-1.256;2023-02-12T01:11:35;31;24;
62054;PMS5003;48653;51.742;-1.256;2023-02-12T01:14:00;30;28;
62054;PMS5003;48653;51.742;-1.256;2023-02-12T01:16:26;26;26;
62054;PMS5003;48653;51.742;-1.256;2023-02-12T01:18:52;29;28;
62054;PMS5003;48653;51.742;-1.256;2023-02-12T01:21:17;29;28;
62054;PMS5003;48653;51.742;-1.256;2023-02-12T01:23:42;38;30;
62054;PMS5003;48653;51.742;-1.256;2023-02-12T01:26:09;32;26;
62054;PMS5003;48653;51.742;-1.256;2023-02-12T01:28:32;33;28;
62054;PMS5003;48653;51.742;-1.256;2023-02-12T01:30:58;29;27;
62054;PMS5003;48653;51.742;-1.256;2023-02-12T01:33:23;29;25;
62054;PMS5003;48653;51.742;-1.256;2023-02-12T01:35:49;36;30;
62054;PMS5003;48653;51.742;-1.256;2023-02-12T01:38:15;30;28;
62054;PMS5003;48653;51.742;-1.256;2023-02-12T01:40:40;31;28;
62054;PMS5003;48653;51.742;-1.256;2023-02-12T01:43:05;28;28;
62054;PMS5003;48653;51.742;-1.256;2023-02-12T01:45:37;28;25;
62054;PMS5003;48653;51.742;-1.256;2023-02-12T01:47:58;29;26;
62054;PMS5003;48653;51.742;-1.256;2023-02-12T01:50:22;25;23;
62054;PMS5003;48653;51.742;-1.256;2023-02-12T01:52:48;30;28;
62054;PMS5003;48653;51.742;-1.256;2023-02-12T01:55:12;32;28;
62054;PMS5003;48653;51.742;-1.256;2023-02-12T01:57:38;31;26;
62054;PMS5003;48653;51.742;-1.256;2023-02-12T02:00:04;27;26;
62054;PMS5003;48653;51.742;-1.256;2023-02-12T02:02:29;31;31;
62054;PMS5003;48653;51.742;-1.256;2023-02-12T02:04:56;27;27;
62054;PMS5003;48653;51.742;-1.256;2023-02-12T02:07:20;29;29;
62054;PMS5003;48653;51.742;-1.256;2023-02-12T02:09:45;26;25;
62054;PMS5003;48653;51.742;-1.256;2023-02-12T02:12:11;28;25;
62054;PMS5003;48653;51.742;-1.256;2023-02-12T02:14:36;26;24;
62054;PMS5003;48653;51.742;-1.256;2023-02-12T02:17:05;28;25;
62054;PMS5003;48653;51.742;-1.256;2023-02-12T02:19:29;27;26;
62054;PMS5003;48653;51.742;-1.256;2023-02-12T02:22:01;25;24;
62054;PMS5003;48653;51.742;-1.256;2023-02-12T02:26:49;21;20;
62054;PMS5003;48653;51.742;-1.256;2023-02-12T02:31:34;20;18;
62054;PMS5003;48653;51.742;-1.256;2023-02-12T02:34:00;19;16;
62054;PMS5003;48653;51.742;-1.256;2023-02-12T02:36:26;25;21;
62054;PMS5003;48653;51.742;-1.256;2023-02-12T02:38:50;22;21;
62054;PMS5003;48653;51.742;-1.256;2023-02-12T02:41:15;21;19;
62054;PMS5003;48653;51.742;-1.256;2023-02-12T02:43:41;18;16;
62054;PMS5003;48653;51.742;-1.256;2023-02-12T02:46:06;19;16;
62054;PMS5003;48653;51.742;-1.256;2023-02-12T02:48:31;23;22;
62054;PMS5003;48653;51.742;-1.256;2023-02-12T02:50:57;17;16;
62054;PMS5003;48653;51.742;-1.256;2023-02-12T02:53:22;16;14;
62054;PMS5003;48653;51.742;-1.256;2023-02-12T02:55:46;17;15;
62054;PMS5003;48653;51.742;-1.256;2023-02-12T02:58:12;19;15;
62054;PMS5003;48653;51.742;-1.256;2023-02-12T03:00:36;18;15;
62054;PMS5003;48653;51.742;-1.256;2023-02-12T03:03:02;17;17;
62054;PMS5003;48653;51.742;-1.256;2023-02-12T03:05:27;19;16;
62054;PMS5003;48653;51.742;-1.256;2023-02-12T03:07:53;19;18;
62054;PMS5003;48653;51.742;-1.256;2023-02-12T03:10:18;19;16;
62054;PMS5003;48653;51.742;-1.256;2023-02-12T03:12:46;22;18;
62054;PMS5003;48653;51.742;-1.256;2023-02-12T03:15:09;18;16;
62054;PMS5003;48653;51.742;-1.256;2023-02-12T03:17:34;18;17;
62054;PMS5003;48653;51.742;-1.256;2023-02-12T03:19:59;19;19;
62054;PMS5003;48653;51.742;-1.256;2023-02-12T03:22:25;17;17;
62054;PMS5003;48653;51.742;-1.256;2023-02-12T03:24:50;20;17;
62054;PMS5003;48653;51.742;-1.256;2023-02-12T03:27:16;20;14;
62054;PMS5003;48653;51.742;-1.256;2023-02-12T03:29:40;17;14;
62054;PMS5003;48653;51.742;-1.256;2023-02-12T03:32:11;15;13;
62054;PMS5003;48653;51.742;-1.256;2023-02-12T03:34:33;18;16;
62054;PMS5003;48653;51.742;-1.256;2023-02-12T03:36:56;14;13;
62054;PMS5003;48653;51.742;-1.256;2023-02-12T03:39:24;14;12;
62054;PMS5003;48653;51.742;-1.256;2023-02-12T03:41:48;18;14;
62054;PMS5003;48653;51.742;-1.256;2023-02-12T03:44:15;17;15;
62054;PMS5003;48653;51.742;-1.256;2023-02-12T03:46:39;14;14;
62054;PMS5003;48653;51.742;-1.256;2023-02-12T03:49:06;19;18;
62054;PMS5003;48653;51.742;-1.256;2023-02-12T03:51:31;19;19;
62054;PMS5003;48653;51.742;-1.256;2023-02-12T03:53:54;21;19;
62054;PMS5003;48653;51.742;-1.256;2023-02-12T03:56:21;20;17;
62054;PMS5003;48653;51.742;-1.256;2023-02-12T03:58:45;20;19;
62054;PMS5003;48653;51.742;-1.256;2023-02-12T04:01:11;20;17;
62054;PMS5003;48653;51.742;-1.256;2023-02-12T04:03:36;18;15;
62054;PMS5003;48653;51.742;-1.256;2023-02-12T04:06:02;16;15;
62054;PMS5003;48653;51.742;-1.256;2023-02-12T04:08:27;15;14;
62054;PMS5003;48653;51.742;-1.256;2023-02-12T04:10:55;11;11;
62054;PMS5003;48653;51.742;-1.256;2023-02-12T04:13:18;11;11;
62054;PMS5003;48653;51.742;-1.256;2023-02-12T04:15:45;13;13;
62054;PMS5003;48653;51.742;-1.256;2023-02-12T04:18:09;16;12;
62054;PMS5003;48653;51.742;-1.256;2023-02-12T04:20:37;16;12;
62054;PMS5003;48653;51.742;-1.256;2023-02-12T04:23:01;14;10;
62054;PMS5003;48653;51.742;-1.256;2023-02-12T04:25:28;15;15;
62054;PMS5003;48653;51.742;-1.256;2023-02-12T04:27:52;11;11;
62054;PMS5003;48653;51.742;-1.256;2023-02-12T04:30:18;14;13;
62054;PMS5003;48653;51.742;-1.256;2023-02-12T04:32:42;14;13;
62054;PMS5003;48653;51.742;-1.256;2023-02-12T04:35:07;11;11;
62054;PMS5003;48653;51.742;-1.256;2023-02-12T04:37:32;14;13;
62054;PMS5003;48653;51.742;-1.256;2023-02-12T04:39:56;14;13;
62054;PMS5003;48653;51.742;-1.256;2023-02-12T04:42:22;14;8;
62054;PMS5003;48653;51.742;-1.256;2023-02-12T04:44:47;11;9;
62054;PMS5003;48653;51.742;-1.256;2023-02-12T04:47:13;15;12;
62054;PMS5003;48653;51.742;-1.256;2023-02-12T04:49:38;19;15;
62054;PMS5003;48653;51.742;-1.256;2023-02-12T04:52:03;14;14;
62054;PMS5003;48653;51.742;-1.256;2023-02-12T04:54:28;10;10;
62054;PMS5003;48653;51.742;-1.256;2023-02-12T04:56:53;14;12;
62054;PMS5003;48653;51.742;-1.256;2023-02-12T04:59:19;15;13;
62054;PMS5003;48653;51.742;-1.256;2023-02-12T05:01:44;19;12;
62054;PMS5003;48653;51.742;-1.256;2023-02-12T05:04:11;13;12;
62054;PMS5003;48653;51.742;-1.256;2023-02-12T05:06:35;15;15;
62054;PMS5003;48653;51.742;-1.256;2023-02-12T05:09:00;14;12;
62054;PMS5003;48653;51.742;-1.256;2023-02-12T05:11:25;13;13;
62054;PMS5003;48653;51.742;-1.256;2023-02-12T05:13:51;17;14;
62054;PMS5003;48653;51.742;-1.256;2023-02-12T05:16:16;15;12;
62054;PMS5003;48653;51.742;-1.256;2023-02-12T05:18:41;12;12;
62054;PMS5003;48653;51.742;-1.256;2023-02-12T05:21:07;13;13;
62054;PMS5003;48653;51.742;-1.256;2023-02-12T05:23:33;18;16;
62054;PMS5003;48653;51.742;-1.256;2023-02-12T05:25:58;13;12;
62054;PMS5003;48653;51.742;-1.256;2023-02-12T05:28:23;12;12;
62054;PMS5003;48653;51.742;-1.256;2023-02-12T05:30:48;14;12;
62054;PMS5003;48653;51.742;-1.256;2023-02-12T05:33:13;11;11;
62054;PMS5003;48653;51.742;-1.256;2023-02-12T05:35:38;15;14;
62054;PMS5003;48653;51.742;-1.256;2023-02-12T05:38:04;15;14;
62054;PMS5003;48653;51.742;-1.256;2023-02-12T05:40:29;14;13;
62054;PMS5003;48653;51.742;-1.256;2023-02-12T05:42:54;15;14;
62054;PMS5003;48653;51.742;-1.256;2023-02-12T05:45:19;13;12;
62054;PMS5003;48653;51.742;-1.256;2023-02-12T05:47:45;16;14;
62054;PMS5003;48653;51.742;-1.256;2023-02-12T05:50:10;14;14;
62054;PMS5003;48653;51.742;-1.256;2023-02-12T05:52:36;16;14;
62054;PMS5003;48653;51.742;-1.256;2023-02-12T05:55:02;14;14;
62054;PMS5003;48653;51.742;-1.256;2023-02-12T05:57:27;18;15;
62054;PMS5003;48653;51.742;-1.256;2023-02-12T05:59:53;13;13;
62054;PMS5003;48653;51.742;-1.256;2023-02-12T06:02:18;17;16;
62054;PMS5003;48653;51.742;-1.256;2023-02-12T06:04:44;15;14;
62054;PMS5003;48653;51.742;-1.256;2023-02-12T06:07:09;14;14;
62054;PMS5003;48653;51.742;-1.256;2023-02-12T06:09:35;12;12;
62054;PMS5003;48653;51.742;-1.256;2023-02-12T06:12:01;12;12;
62054;PMS5003;48653;51.742;-1.256;2023-02-12T06:14:26;18;14;
62054;PMS5003;48653;51.742;-1.256;2023-02-12T06:16:51;18;16;
62054;PMS5003;48653;51.742;-1.256;2023-02-12T06:19:17;16;16;
62054;PMS5003;48653;51.742;-1.256;2023-02-12T06:21:42;19;18;
62054;PMS5003;48653;51.742;-1.256;2023-02-12T06:24:07;17;16;
62054;PMS5003;48653;51.742;-1.256;2023-02-12T06:26:32;19;16;
62054;PMS5003;48653;51.742;-1.256;2023-02-12T06:28:57;25;25;
62054;PMS5003;48653;51.742;-1.256;2023-02-12T06:31:24;24;24;
62054;PMS5003;48653;51.742;-1.256;2023-02-12T06:33:49;19;18;
62054;PMS5003;48653;51.742;-1.256;2023-02-12T06:36:14;20;17;
62054;PMS5003;48653;51.742;-1.256;2023-02-12T06:38:39;22;19;
62054;PMS5003;48653;51.742;-1.256;2023-02-12T06:41:04;21;21;
62054;PMS5003;48653;51.742;-1.256;2023-02-12T06:43:30;21;21;
62054;PMS5003;48653;51.742;-1.256;2023-02-12T06:45:55;22;18;
62054;PMS5003;48653;51.742;-1.256;2023-02-12T06:48:21;19;18;
62054;PMS5003;48653;51.742;-1.256;2023-02-12T06:50:46;20;20;
62054;PMS5003;48653;51.742;-1.256;2023-02-12T06:53:11;20;18;
62054;PMS5003;48653;51.742;-1.256;2023-02-12T06:55:36;20;20;
62054;PMS5003;48653;51.742;-1.256;2023-02-12T06:58:02;19;19;
62054;PMS5003;48653;51.742;-1.256;2023-02-12T07:00:27;16;15;
62054;PMS5003;48653;51.742;-1.256;2023-02-12T07:02:53;21;20;
62054;PMS5003;48653;51.742;-1.256;2023-02-12T07:05:18;19;19;
62054;PMS5003;48653;51.742;-1.256;2023-02-12T07:07:43;20;20;
62054;PMS5003;48653;51.742;-1.256;2023-02-12T07:10:08;24;19;
62054;PMS5003;48653;51.742;-1.256;2023-02-12T07:12:33;28;24;
62054;PMS5003;48653;51.742;-1.256;2023-02-12T07:14:59;27;24;
62054;PMS5003;48653;51.742;-1.256;2023-02-12T07:17:24;26;23;
62054;PMS5003;48653;51.742;-1.256;2023-02-12T07:19:50;30;26;
62054;PMS5003;48653;51.742;-1.256;2023-02-12T07:22:15;29;27;
62054;PMS5003;48653;51.742;-1.256;2023-02-12T07:24:41;26;22;
62054;PMS5003;48653;51.742;-1.256;2023-02-12T07:27:06;25;23;
62054;PMS5003;48653;51.742;-1.256;2023-02-12T07:29:31;25;24;
62054;PMS5003;48653;51.742;-1.256;2023-02-12T07:31:57;26;23;
62054;PMS5003;48653;51.742;-1.256;2023-02-12T07:34:22;25;22;
62054;PMS5003;48653;51.742;-1.256;2023-02-12T07:36:47;34;31;
62054;PMS5003;48653;51.742;-1.256;2023-02-12T07:39:13;31;28;
62054;PMS5003;48653;51.742;-1.256;2023-02-12T07:41:38;28;27;
62054;PMS5003;48653;51.742;-1.256;2023-02-12T07:44:05;33;29;
62054;PMS5003;48653;51.742;-1.256;2023-02-12T07:46:30;35;31;
62054;PMS5003;48653;51.742;-1.256;2023-02-12T07:48:55;31;27;
62054;PMS5003;48653;51.742;-1.256;2023-02-12T07:51:20;35;33;
62054;PMS5003;48653;51.742;-1.256;2023-02-12T07:53:46;38;33;
62054;PMS5003;48653;51.742;-1.256;2023-02-12T07:56:12;39;36;
62054;PMS5003;48653;51.742;-1.256;2023-02-12T07:58:37;37;35;
62054;PMS5003;48653;51.742;-1.256;2023-02-12T08:03:27;38;33;
62054;PMS5003;48653;51.742;-1.256;2023-02-12T08:05:52;38;34;
62054;PMS5003;48653;51.742;-1.256;2023-02-12T08:08:18;36;32;
62054;PMS5003;48653;51.742;-1.256;2023-02-12T08:10:43;37;36;
62054;PMS5003;48653;51.742;-1.256;2023-02-12T08:13:09;36;32;
62054;PMS5003;48653;51.742;-1.256;2023-02-12T08:15:35;38;35;
62054;PMS5003;48653;51.742;-1.256;2023-02-12T08:18:00;41;37;
62054;PMS5003;48653;51.742;-1.256;2023-02-12T08:20:25;33;31;
62054;PMS5003;48653;51.742;-1.256;2023-02-12T08:22:51;37;33;
62054;PMS5003;48653;51.742;-1.256;2023-02-12T08:25:16;42;36;
62054;PMS5003;48653;51.742;-1.256;2023-02-12T08:27:41;37;33;
62054;PMS5003;48653;51.742;-1.256;2023-02-12T08:30:12;39;37;
62054;PMS5003;48653;51.742;-1.256;2023-02-12T08:32:32;37;34;
62054;PMS5003;48653;51.742;-1.256;2023-02-12T08:34:58;37;33;
62054;PMS5003;48653;51.742;-1.256;2023-02-12T08:37:23;36;34;
62054;PMS5003;48653;51.742;-1.256;2023-02-12T08:39:49;37;31;
62054;PMS5003;48653;51.742;-1.256;2023-02-12T08:42:14;37;33;
62054;PMS5003;48653;51.742;-1.256;2023-02-12T08:44:41;38;31;
62054;PMS5003;48653;51.742;-1.256;2023-02-12T08:47:05;43;36;
62054;PMS5003;48653;51.742;-1.256;2023-02-12T08:49:30;36;33;
62054;PMS5003;48653;51.742;-1.256;2023-02-12T08:51:56;46;36;
62054;PMS5003;48653;51.742;-1.256;2023-02-12T08:54:21;42;37;
62054;PMS5003;48653;51.742;-1.256;2023-02-12T08:56:46;47;39;
62054;PMS5003;48653;51.742;-1.256;2023-02-12T08:59:12;47;37;
62054;PMS5003;48653;51.742;-1.256;2023-02-12T09:01:38;41;35;
62054;PMS5003;48653;51.742;-1.256;2023-02-12T09:04:03;36;33;
62054;PMS5003;48653;51.742;-1.256;2023-02-12T09:06:30;40;39;
62054;PMS5003;48653;51.742;-1.256;2023-02-12T09:08:54;39;35;
62054;PMS5003;48653;51.742;-1.256;2023-02-12T09:11:20;42;34;
62054;PMS5003;48653;51.742;-1.256;2023-02-12T09:13:45;38;37;
62054;PMS5003;48653;51.742;-1.256;2023-02-12T09:16:10;41;35;
62054;PMS5003;48653;51.742;-1.256;2023-02-12T09:18:36;42;38;
62054;PMS5003;48653;51.742;-1.256;2023-02-12T09:21:01;34;26;
62054;PMS5003;48653;51.742;-1.256;2023-02-12T09:23:26;28;28;
62054;PMS5003;48653;51.742;-1.256;2023-02-12T09:25:53;30;25;
62054;PMS5003;48653;51.742;-1.256;2023-02-12T09:28:17;28;26;
62054;PMS5003;48653;51.742;-1.256;2023-02-12T09:30:43;31;27;
62054;PMS5003;48653;51.742;-1.256;2023-02-12T09:33:08;27;27;
62054;PMS5003;48653;51.742;-1.256;2023-02-12T09:35:33;29;28;
62054;PMS5003;48653;51.742;-1.256;2023-02-12T09:37:58;34;31;
62054;PMS5003;48653;51.742;-1.256;2023-02-12T09:40:24;28;25;
62054;PMS5003;48653;51.742;-1.256;2023-02-12T09:42:52;32;27;
62054;PMS5003;48653;51.742;-1.256;2023-02-12T09:45:15;34;30;
62054;PMS5003;48653;51.742;-1.256;2023-02-12T09:47:41;32;30;
62054;PMS5003;48653;51.742;-1.256;2023-02-12T09:50:11;28;27;
62054;PMS5003;48653;51.742;-1.256;2023-02-12T09:52:30;30;27;
62054;PMS5003;48653;51.742;-1.256;2023-02-12T09:54:56;31;26;
62054;PMS5003;48653;51.742;-1.256;2023-02-12T09:57:23;29;27;
62054;PMS5003;48653;51.742;-1.256;2023-02-12T09:59:49;23;22;
62054;PMS5003;48653;51.742;-1.256;2023-02-12T10:02:13;28;23;
62054;PMS5003;48653;51.742;-1.256;2023-02-12T10:04:38;29;27;
62054;PMS5003;48653;51.742;-1.256;2023-02-12T10:07:05;29;26;
62054;PMS5003;48653;51.742;-1.256;2023-02-12T10:09:32;27;27;
62054;PMS5003;48653;51.742;-1.256;2023-02-12T10:14:27;33;31;
62054;PMS5003;48653;51.742;-1.256;2023-02-12T10:16:47;31;27;
62054;PMS5003;48653;51.742;-1.256;2023-02-12T10:19:15;34;33;
62054;PMS5003;48653;51.742;-1.256;2023-02-12T10:21:39;25;24;
62054;PMS5003;48653;51.742;-1.256;2023-02-12T10:26:28;31;29;
62054;PMS5003;48653;51.742;-1.256;2023-02-12T10:28:52;29;29;
62054;PMS5003;48653;51.742;-1.256;2023-02-12T10:31:19;32;31;
62054;PMS5003;48653;51.742;-1.256;2023-02-12T10:33:44;26;25;
62054;PMS5003;48653;51.742;-1.256;2023-02-12T10:36:10;26;22;
62054;PMS5003;48653;51.742;-1.256;2023-02-12T10:38:35;23;21;
62054;PMS5003;48653;51.742;-1.256;2023-02-12T10:41:00;25;22;
62054;PMS5003;48653;51.742;-1.256;2023-02-12T10:43:25;24;21;
62054;PMS5003;48653;51.742;-1.256;2023-02-12T10:45:50;22;21;
62054;PMS5003;48653;51.742;-1.256;2023-02-12T10:48:17;26;20;
62054;PMS5003;48653;51.742;-1.256;2023-02-12T10:50:45;27;26;
62054;PMS5003;48653;51.742;-1.256;2023-02-12T10:53:14;27;24;
62054;PMS5003;48653;51.742;-1.256;2023-02-12T10:55:33;29;25;
62054;PMS5003;48653;51.742;-1.256;2023-02-12T10:57:58;21;20;
62054;PMS5003;48653;51.742;-1.256;2023-02-12T11:00:25;25;21;
62054;PMS5003;48653;51.742;-1.256;2023-02-12T11:05:21;23;19;
62054;PMS5003;48653;51.742;-1.256;2023-02-12T11:07:45;25;25;
62054;PMS5003;48653;51.742;-1.256;2023-02-12T11:10:06;27;24;
62054;PMS5003;48653;51.742;-1.256;2023-02-12T11:12:31;32;27;
62054;PMS5003;48653;51.742;-1.256;2023-02-12T11:14:56;24;22;
62054;PMS5003;48653;51.742;-1.256;2023-02-12T11:17:23;22;21;
62054;PMS5003;48653;51.742;-1.256;2023-02-12T11:19:46;25;24;
62054;PMS5003;48653;51.742;-1.256;2023-02-12T11:22:12;26;20;
62054;PMS5003;48653;51.742;-1.256;2023-02-12T11:24:37;20;19;
62054;PMS5003;48653;51.742;-1.256;2023-02-12T11:27:12;22;22;
62054;PMS5003;48653;51.742;-1.256;2023-02-12T11:29:27;16;15;
62054;PMS5003;48653;51.742;-1.256;2023-02-12T11:31:59;22;21;
62054;PMS5003;48653;51.742;-1.256;2023-02-12T11:34:18;20;20;
62054;PMS5003;48653;51.742;-1.256;2023-02-12T11:36:44;20;15;
62054;PMS5003;48653;51.742;-1.256;2023-02-12T11:41:35;16;15;
62054;PMS5003;48653;51.742;-1.256;2023-02-12T11:44:00;20;17;
62054;PMS5003;48653;51.742;-1.256;2023-02-12T11:46:26;19;19;
62054;PMS5003;48653;51.742;-1.256;2023-02-12T11:48:51;16;16;
62054;PMS5003;48653;51.742;-1.256;2023-02-12T11:51:17;16;15;
62054;PMS5003;48653;51.742;-1.256;2023-02-12T11:53:42;20;18;
62054;PMS5003;48653;51.742;-1.256;2023-02-12T11:56:08;18;17;
62054;PMS5003;48653;51.742;-1.256;2023-02-12T11:58:33;18;16;
62054;PMS5003;48653;51.742;-1.256;2023-02-12T12:01:02;15;14;
62054;PMS5003;48653;51.742;-1.256;2023-02-12T12:03:25;22;18;
62054;PMS5003;48653;51.742;-1.256;2023-02-12T12:05:51;19;19;
62054;PMS5003;48653;51.742;-1.256;2023-02-12T12:08:18;20;16;
62054;PMS5003;48653;51.742;-1.256;2023-02-12T12:10:43;22;21;
62054;PMS5003;48653;51.742;-1.256;2023-02-12T12:13:09;19;19;
62054;PMS5003;48653;51.742;-1.256;2023-02-12T12:15:32;16;16;
62054;PMS5003;48653;51.742;-1.256;2023-02-12T12:18:04;17;17;
62054;PMS5003;48653;51.742;-1.256;2023-02-12T12:20:24;23;17;
62054;PMS5003;48653;51.742;-1.256;2023-02-12T12:22:49;24;20;
62054;PMS5003;48653;51.742;-1.256;2023-02-12T12:25:17;21;18;
62054;PMS5003;48653;51.742;-1.256;2023-02-12T12:27:40;20;19;
62054;PMS5003;48653;51.742;-1.256;2023-02-12T12:30:05;21;20;
62054;PMS5003;48653;51.742;-1.256;2023-02-12T12:32:29;20;20;
62054;PMS5003;48653;51.742;-1.256;2023-02-12T12:34:55;21;19;
62054;PMS5003;48653;51.742;-1.256;2023-02-12T12:37:24;23;20;
62054;PMS5003;48653;51.742;-1.256;2023-02-12T12:39:55;27;21;
62054;PMS5003;48653;51.742;-1.256;2023-02-12T12:42:21;21;21;
62054;PMS5003;48653;51.742;-1.256;2023-02-12T12:44:44;23;22;
62054;PMS5003;48653;51.742;-1.256;2023-02-12T12:47:04;26;22;
62054;PMS5003;48653;51.742;-1.256;2023-02-12T12:49:30;26;25;
62054;PMS5003;48653;51.742;-1.256;2023-02-12T12:54:21;26;24;
62054;PMS5003;48653;51.742;-1.256;2023-02-12T12:56:44;27;25;
62054;PMS5003;48653;51.742;-1.256;2023-02-12T13:01:38;27;23;
62054;PMS5003;48653;51.742;-1.256;2023-02-12T13:06:29;22;19;
62054;PMS5003;48653;51.742;-1.256;2023-02-12T13:08:53;18;17;
62054;PMS5003;48653;51.742;-1.256;2023-02-12T13:11:18;24;22;
62054;PMS5003;48653;51.742;-1.256;2023-02-12T13:13:40;24;20;
62054;PMS5003;48653;51.742;-1.256;2023-02-12T13:16:06;23;19;
62054;PMS5003;48653;51.742;-1.256;2023-02-12T13:18:34;23;22;
62054;PMS5003;48653;51.742;-1.256;2023-02-12T13:20:56;22;21;
62054;PMS5003;48653;51.742;-1.256;2023-02-12T13:23:21;21;16;
62054;PMS5003;48653;51.742;-1.256;2023-02-12T13:25:46;21;17;
62054;PMS5003;48653;51.742;-1.256;2023-02-12T13:28:12;17;17;
62054;PMS5003;48653;51.742;-1.256;2023-02-12T13:30:37;20;17;
62054;PMS5003;48653;51.742;-1.256;2023-02-12T13:33:08;18;18;
62054;PMS5003;48653;51.742;-1.256;2023-02-12T13:35:26;24;21;
62054;PMS5003;48653;51.742;-1.256;2023-02-12T13:37:52;18;14;
62054;PMS5003;48653;51.742;-1.256;2023-02-12T13:40:17;18;18;
62054;PMS5003;48653;51.742;-1.256;2023-02-12T13:42:44;18;16;
62054;PMS5003;48653;51.742;-1.256;2023-02-12T13:45:13;22;20;
62054;PMS5003;48653;51.742;-1.256;2023-02-12T13:47:33;18;17;
62054;PMS5003;48653;51.742;-1.256;2023-02-12T13:49:59;19;19;
62054;PMS5003;48653;51.742;-1.256;2023-02-12T13:52:26;18;16;
62054;PMS5003;48653;51.742;-1.256;2023-02-12T13:54:52;14;14;
62054;PMS5003;48653;51.742;-1.256;2023-02-12T13:57:15;18;18;
62054;PMS5003;48653;51.742;-1.256;2023-02-12T13:59:40;16;16;
62054;PMS5003;48653;51.742;-1.256;2023-02-12T14:02:05;14;12;
62054;PMS5003;48653;51.742;-1.256;2023-02-12T14:04:30;17;15;
62054;PMS5003;48653;51.742;-1.256;2023-02-12T14:06:56;14;13;
62054;PMS5003;48653;51.742;-1.256;2023-02-12T14:09:20;15;15;
62054;PMS5003;48653;51.742;-1.256;2023-02-12T14:11:45;15;13;
62054;PMS5003;48653;51.742;-1.256;2023-02-12T14:14:10;18;14;
62054;PMS5003;48653;51.742;-1.256;2023-02-12T14:16:37;16;13;
62054;PMS5003;48653;51.742;-1.256;2023-02-12T14:23:51;13;12;
62054;PMS5003;48653;51.742;-1.256;2023-02-12T14:26:16;10;10;
62054;PMS5003;48653;51.742;-1.256;2023-02-12T14:28:44;11;9;
62054;PMS5003;48653;51.742;-1.256;2023-02-12T14:33:32;14;14;
62054;PMS5003;48653;51.742;-1.256;2023-02-12T14:40:49;16;12;
62054;PMS5003;48653;51.742;-1.256;2023-02-12T14:45:39;16;14;
62054;PMS5003;48653;51.742;-1.256;2023-02-12T14:48:07;14;14;
62054;PMS5003;48653;51.742;-1.256;2023-02-12T14:50:36;17;15;
62054;PMS5003;48653;51.742;-1.256;2023-02-12T14:52:59;16;13;
62054;PMS5003;48653;51.742;-1.256;2023-02-12T14:55:22;14;13;
62054;PMS5003;48653;51.742;-1.256;2023-02-12T14:57:46;12;12;
62054;PMS5003;48653;51.742;-1.256;2023-02-12T15:02:38;11;11;
62054;PMS5003;48653;51.742;-1.256;2023-02-12T15:05:04;12;12;
62054;PMS5003;48653;51.742;-1.256;2023-02-12T15:07:29;15;13;
62054;PMS5003;48653;51.742;-1.256;2023-02-12T15:09:55;19;15;
62054;PMS5003;48653;51.742;-1.256;2023-02-12T15:12:19;16;15;
62054;PMS5003;48653;51.742;-1.256;2023-02-12T15:14:44;13;13;
62054;PMS5003;48653;51.742;-1.256;2023-02-12T15:17:09;16;13;
62054;PMS5003;48653;51.742;-1.256;2023-02-12T15:19:37;16;14;
62054;PMS5003;48653;51.742;-1.256;2023-02-12T15:21:59;16;14;
62054;PMS5003;48653;51.742;-1.256;2023-02-12T15:24:25;18;18;
62054;PMS5003;48653;51.742;-1.256;2023-02-12T15:26:50;15;13;
62054;PMS5003;48653;51.742;-1.256;2023-02-12T15:29:18;15;14;
62054;PMS5003;48653;51.742;-1.256;2023-02-12T15:31:40;13;13;
62054;PMS5003;48653;51.742;-1.256;2023-02-12T15:34:05;14;12;
62054;PMS5003;48653;51.742;-1.256;2023-02-12T15:36:31;18;16;
62054;PMS5003;48653;51.742;-1.256;2023-02-12T15:38:56;17;16;
62054;PMS5003;48653;51.742;-1.256;2023-02-12T15:41:23;16;14;
62054;PMS5003;48653;51.742;-1.256;2023-02-12T15:43:47;19;19;
62054;PMS5003;48653;51.742;-1.256;2023-02-12T15:46:14;16;16;
62054;PMS5003;48653;51.742;-1.256;2023-02-12T15:48:37;20;16;
62054;PMS5003;48653;51.742;-1.256;2023-02-12T15:51:04;20;18;
62054;PMS5003;48653;51.742;-1.256;2023-02-12T15:53:27;17;16;
62054;PMS5003;48653;51.742;-1.256;2023-02-12T15:55:53;19;16;
62054;PMS5003;48653;51.742;-1.256;2023-02-12T15:58:20;15;14;
62054;PMS5003;48653;51.742;-1.256;2023-02-12T16:00:44;17;17;
62054;PMS5003;48653;51.742;-1.256;2023-02-12T16:05:34;18;17;
62054;PMS5003;48653;51.742;-1.256;2023-02-12T16:08:00;17;16;
62054;PMS5003;48653;51.742;-1.256;2023-02-12T16:10:25;21;19;
62054;PMS5003;48653;51.742;-1.256;2023-02-12T16:12:50;17;16;
62054;PMS5003;48653;51.742;-1.256;2023-02-12T16:15:24;23;18;
62054;PMS5003;48653;51.742;-1.256;2023-02-12T16:17:45;22;18;
62054;PMS5003;48653;51.742;-1.256;2023-02-12T16:22:33;21;18;
62054;PMS5003;48653;51.742;-1.256;2023-02-12T16:24:57;26;24;
62054;PMS5003;48653;51.742;-1.256;2023-02-12T16:27:24;25;23;
62054;PMS5003;48653;51.742;-1.256;2023-02-12T16:29:49;27;27;
62054;PMS5003;48653;51.742;-1.256;2023-02-12T16:34:39;61;48;
62054;PMS5003;48653;51.742;-1.256;2023-02-12T16:41:55;27;24;
62054;PMS5003;48653;51.742;-1.256;2023-02-12T16:46:47;14;12;
62054;PMS5003;48653;51.742;-1.256;2023-02-12T16:49:13;19;17;